Time,TemperatureF,DewpointF,PressureIn,WindDirection,WindDirectionDegrees,WindSpeedMPH,WindSpeedGustMPH,Humidity,HourlyPrecipIn,Conditions,Clouds,dailyrainin,SoftwareType,DateUTC
2013-06-17 00:05:00,64.3,59.0,29.85,NNW,348,0.0,-999.0,84,-99.99,,,0.00,weatherlink.com 1.10,2013-06-17 04:05:00,
2013-06-17 00:20:00,62.9,59.0,29.86,NNW,348,0.0,-999.0,86,-99.99,,,0.00,weatherlink.com 1.10,2013-06-17 04:20:00,
2013-06-17 00:35:00,61.5,58.0,29.86,NNW,348,0.0,-999.0,89,-99.99,,,0.00,weatherlink.com 1.10,2013-06-17 04:35:00,
2013-06-17 00:50:00,60.9,58.0,29.86,SW,221,5.0,-999.0,91,-99.99,,,0.00,weatherlink.com 1.10,2013-06-17 04:50:00,
2013-06-17 01:05:00,61.0,59.0,29.86,SW,217,4.0,-999.0,92,-99.99,,,0.00,weatherlink.com 1.10,2013-06-17 05:05:00,
2013-06-17 01:20:00,61.3,59.0,29.86,SW,217,4.0,-999.0,91,-99.99,,,0.00,weatherlink.com 1.10,2013-06-17 05:20:00,
2013-06-17 01:35:00,61.5,59.0,29.86,North,350,2.0,-999.0,91,-99.99,,,0.00,weatherlink.com 1.10,2013-06-17 05:35:00,
2013-06-17 01:50:00,61.3,59.0,29.86,North,350,0.0,-999.0,91,-99.99,,,0.00,weatherlink.com 1.10,2013-06-17 05:50:00,
2013-06-17 02:05:00,60.8,59.0,29.86,SW,228,4.0,-999.0,92,-99.99,,,0.00,weatherlink.com 1.10,2013-06-17 06:05:00,
2013-06-17 02:20:00,60.2,58.0,29.85,SW,220,2.0,-999.0,93,-99.99,,,0.00,weatherlink.com 1.10,2013-06-17 06:20:00,
2013-06-17 02:35:00,60.1,58.0,29.85,SW,220,3.0,-999.0,94,-99.99,,,0.00,weatherlink.com 1.10,2013-06-17 06:35:00,
2013-06-17 02:50:00,60.1,58.0,29.88,NNW,341,10.0,-999.0,94,-99.99,,,0.00,weatherlink.com 1.10,2013-06-17 06:50:00,
2013-06-17 03:05:00,61.9,60.0,29.88,NW,325,8.0,-999.0,94,-99.99,,,0.00,weatherlink.com 1.10,2013-06-17 07:05:00,
2013-06-17 03:20:00,61.8,60.0,29.87,NNW,337,3.0,-999.0,93,-99.99,,,0.00,weatherlink.com 1.10,2013-06-17 07:20:00,
2013-06-17 03:35:00,61.3,59.0,29.87,NNW,332,0.0,-999.0,92,-99.99,,,0.00,weatherlink.com 1.10,2013-06-17 07:35:00,
2013-06-17 03:50:00,60.4,58.0,29.87,NNW,332,0.0,-999.0,92,-99.99,,,0.00,weatherlink.com 1.10,2013-06-17 07:50:00,
2013-06-17 04:05:00,59.5,57.0,29.86,NNW,332,0.0,-999.0,92,-99.99,,,0.00,weatherlink.com 1.10,2013-06-17 08:05:00,
2013-06-17 04:20:00,58.6,56.0,29.85,NNW,332,0.0,-999.0,92,-99.99,,,0.00,weatherlink.com 1.10,2013-06-17 08:20:00,
2013-06-17 04:35:00,58.0,56.0,29.85,NNW,332,0.0,-999.0,93,-99.99,,,0.00,weatherlink.com 1.10,2013-06-17 08:35:00,
2013-06-17 04:50:00,56.6,54.0,29.86,NNW,332,0.0,-999.0,92,-99.99,,,0.00,weatherlink.com 1.10,2013-06-17 08:50:00,
2013-06-17 05:05:00,55.4,54.0,29.86,NNW,332,0.0,-999.0,93,-99.99,,,0.00,weatherlink.com 1.10,2013-06-17 09:05:00,
2013-06-17 05:20:00,54.6,53.0,29.86,NNW,332,0.0,-999.0,93,-99.99,,,0.00,weatherlink.com 1.10,2013-06-17 09:20:00,
2013-06-17 05:35:00,54.7,53.0,29.86,NNW,332,1.0,-999.0,95,-99.99,,,0.00,weatherlink.com 1.10,2013-06-17 09:35:00,
2013-06-17 05:50:00,56.1,55.0,29.86,NNW,332,0.0,-999.0,96,-99.99,,,0.00,weatherlink.com 1.10,2013-06-17 09:50:00,
2013-06-17 06:05:00,55.4,54.0,29.86,WSW,244,0.0,-999.0,95,-99.99,,,0.00,weatherlink.com 1.10,2013-06-17 10:05:00,
2013-06-17 06:20:00,55.4,54.0,29.86,WSW,244,0.0,-999.0,95,-99.99,,,0.00,weatherlink.com 1.10,2013-06-17 10:20:00,
2013-06-17 06:35:00,56.8,56.0,29.86,WSW,244,2.0,-999.0,97,-99.99,,,0.00,weatherlink.com 1.10,2013-06-17 10:35:00,
2013-06-17 06:50:00,57.8,57.0,29.86,WSW,244,0.0,-999.0,96,-99.99,,,0.00,weatherlink.com 1.10,2013-06-17 10:50:00,
2013-06-17 07:05:00,58.2,57.0,29.86,WSW,244,0.0,-999.0,96,-99.99,,,0.00,weatherlink.com 1.10,2013-06-17 11:05:00,
2013-06-17 07:20:00,59.1,58.0,29.87,WSW,244,0.0,-999.0,96,-99.99,,,0.00,weatherlink.com 1.10,2013-06-17 11:20:00,
2013-06-17 07:35:00,60.9,60.0,29.89,NNE,25,8.0,-999.0,95,-99.99,,,0.00,weatherlink.com 1.10,2013-06-17 11:35:00,
2013-06-17 07:50:00,62.0,59.0,29.88,NNE,22,3.0,-999.0,90,-99.99,,,0.00,weatherlink.com 1.10,2013-06-17 11:50:00,
2013-06-17 08:05:00,63.5,60.0,29.88,NNE,22,0.0,-999.0,88,-99.99,,,0.00,weatherlink.com 1.10,2013-06-17 12:05:00,
2013-06-17 08:20:00,65.4,61.0,29.89,NNE,22,1.0,-999.0,85,-99.99,,,0.00,weatherlink.com 1.10,2013-06-17 12:20:00,
2013-06-17 08:35:00,66.9,61.0,29.88,NNE,22,1.0,-999.0,80,-99.99,,,0.00,weatherlink.com 1.10,2013-06-17 12:35:00,
2013-06-17 08:50:00,68.3,60.0,29.88,NNE,22,1.0,-999.0,76,-99.99,,,0.00,weatherlink.com 1.10,2013-06-17 12:50:00,
2013-06-17 09:05:00,68.2,60.0,29.88,NNE,22,0.0,-999.0,75,-99.99,,,0.00,weatherlink.com 1.10,2013-06-17 13:05:00,
2013-06-17 09:20:00,70.5,61.0,29.89,NNE,22,0.0,-999.0,71,-99.99,,,0.00,weatherlink.com 1.10,2013-06-17 13:20:00,
2013-06-17 09:35:00,70.9,58.0,29.89,ENE,61,3.0,-999.0,64,-99.99,,,0.00,weatherlink.com 1.10,2013-06-17 13:35:00,
2013-06-17 09:50:00,71.3,60.0,29.89,ESE,113,1.0,-999.0,67,-99.99,,,0.00,weatherlink.com 1.10,2013-06-17 13:50:00,
2013-06-17 10:05:00,72.2,61.0,29.89,SE,140,2.0,-999.0,69,-99.99,,,0.00,weatherlink.com 1.10,2013-06-17 14:05:00,
2013-06-17 10:20:00,73.3,60.0,29.88,ESE,121,4.0,-999.0,64,-99.99,,,0.00,weatherlink.com 1.10,2013-06-17 14:20:00,
2013-06-17 10:35:00,73.7,60.0,29.88,ESE,113,4.0,-999.0,62,-99.99,,,0.00,weatherlink.com 1.10,2013-06-17 14:35:00,
2013-06-17 10:50:00,74.4,61.0,29.88,SSE,155,1.0,-999.0,64,-99.99,,,0.00,weatherlink.com 1.10,2013-06-17 14:50:00,
2013-06-17 11:05:00,74.9,62.0,29.89,South,188,3.0,-999.0,65,-99.99,,,0.00,weatherlink.com 1.10,2013-06-17 15:05:00,
2013-06-17 11:20:00,75.3,61.0,29.88,SSW,209,1.0,-999.0,61,-99.99,,,0.00,weatherlink.com 1.10,2013-06-17 15:20:00,
2013-06-17 11:35:00,76.5,64.0,29.88,WSW,248,5.0,-999.0,65,-99.99,,,0.00,weatherlink.com 1.10,2013-06-17 15:35:00,
2013-06-17 11:50:00,77.0,62.0,29.87,SSW,200,5.0,-999.0,61,-99.99,,,0.00,weatherlink.com 1.10,2013-06-17 15:50:00,
2013-06-17 12:05:00,76.5,63.0,29.87,South,190,0.0,-999.0,64,-99.99,,,0.00,weatherlink.com 1.10,2013-06-17 16:05:00,
2013-06-17 12:20:00,77.1,63.0,29.87,SW,221,3.0,-999.0,62,-99.99,,,0.00,weatherlink.com 1.10,2013-06-17 16:20:00,
2013-06-17 12:35:00,76.2,62.0,29.87,West,281,4.0,-999.0,61,-99.99,,,0.00,weatherlink.com 1.10,2013-06-17 16:35:00,
2013-06-17 12:50:00,76.7,64.0,29.87,West,275,5.0,-999.0,65,-99.99,,,0.00,weatherlink.com 1.10,2013-06-17 16:50:00,
2013-06-17 13:05:00,77.3,62.0,29.86,WSW,253,6.0,-999.0,59,-99.99,,,0.00,weatherlink.com 1.10,2013-06-17 17:05:00,
2013-06-17 13:20:00,78.7,61.0,29.86,West,261,5.0,-999.0,55,-99.99,,,0.00,weatherlink.com 1.10,2013-06-17 17:20:00,
2013-06-17 13:35:00,79.1,62.0,29.85,SW,232,0.0,-999.0,56,-99.99,,,0.00,weatherlink.com 1.10,2013-06-17 17:35:00,
2013-06-17 13:50:00,79.3,59.0,29.86,West,278,10.0,-999.0,50,-99.99,,,0.00,weatherlink.com 1.10,2013-06-17 17:50:00,
2013-06-17 14:05:00,79.5,59.0,29.85,West,263,9.0,-999.0,49,-99.99,,,0.00,weatherlink.com 1.10,2013-06-17 18:05:00,
2013-06-17 14:20:00,79.7,60.0,29.85,WSW,257,7.0,-999.0,51,-99.99,,,0.00,weatherlink.com 1.10,2013-06-17 18:20:00,
2013-06-17 14:35:00,79.5,58.0,29.85,WSW,247,7.0,-999.0,48,-99.99,,,0.00,weatherlink.com 1.10,2013-06-17 18:35:00,
2013-06-17 14:50:00,79.6,59.0,29.85,West,262,9.0,-999.0,50,-99.99,,,0.00,weatherlink.com 1.10,2013-06-17 18:50:00,
2013-06-17 15:05:00,80.0,59.0,29.85,SW,232,9.0,-999.0,48,-99.99,,,0.00,weatherlink.com 1.10,2013-06-17 19:05:00,
2013-06-17 15:20:00,79.5,59.0,29.84,West,263,10.0,-999.0,49,-99.99,,,0.00,weatherlink.com 1.10,2013-06-17 19:20:00,
2013-06-17 15:35:00,79.7,62.0,29.84,West,261,8.0,-999.0,54,-99.99,,,0.00,weatherlink.com 1.10,2013-06-17 19:35:00,
2013-06-17 15:50:00,79.5,61.0,29.84,WSW,242,7.0,-999.0,53,-99.99,,,0.00,weatherlink.com 1.10,2013-06-17 19:50:00,
2013-06-17 16:05:00,80.1,61.0,29.84,WSW,258,7.0,-999.0,52,-99.99,,,0.00,weatherlink.com 1.10,2013-06-17 20:05:00,
2013-06-17 16:20:00,80.3,62.0,29.84,SW,236,10.0,-999.0,53,-99.99,,,0.00,weatherlink.com 1.10,2013-06-17 20:20:00,
2013-06-17 16:35:00,80.3,61.0,29.84,WNW,291,10.0,-999.0,52,-99.99,,,0.00,weatherlink.com 1.10,2013-06-17 20:35:00,
2013-06-17 16:50:00,79.1,61.0,29.84,WSW,246,9.0,-999.0,54,-99.99,,,0.00,weatherlink.com 1.10,2013-06-17 20:50:00,
2013-06-17 17:05:00,78.7,60.0,29.84,West,267,4.0,-999.0,53,-99.99,,,0.00,weatherlink.com 1.10,2013-06-17 21:05:00,
2013-06-17 17:20:00,78.6,58.0,29.84,WSW,252,7.0,-999.0,49,-99.99,,,0.00,weatherlink.com 1.10,2013-06-17 21:20:00,
2013-06-17 17:35:00,78.7,58.0,29.83,West,264,5.0,-999.0,50,-99.99,,,0.00,weatherlink.com 1.10,2013-06-17 21:35:00,
2013-06-17 17:50:00,79.5,60.0,29.83,West,278,6.0,-999.0,51,-99.99,,,0.00,weatherlink.com 1.10,2013-06-17 21:50:00,
2013-06-17 18:05:00,79.6,59.0,29.82,WSW,257,6.0,-999.0,49,-99.99,,,0.00,weatherlink.com 1.10,2013-06-17 22:05:00,
2013-06-17 18:20:00,78.9,59.0,29.82,WSW,248,3.0,-999.0,51,-99.99,,,0.00,weatherlink.com 1.10,2013-06-17 22:20:00,
2013-06-17 18:35:00,77.8,61.0,29.82,West,271,3.0,-999.0,56,-99.99,,,0.00,weatherlink.com 1.10,2013-06-17 22:35:00,
2013-06-17 18:50:00,78.3,62.0,29.82,WSW,257,4.0,-999.0,58,-99.99,,,0.00,weatherlink.com 1.10,2013-06-17 22:50:00,
2013-06-17 19:05:00,78.1,59.0,29.82,WSW,245,4.0,-999.0,53,-99.99,,,0.00,weatherlink.com 1.10,2013-06-17 23:05:00,
2013-06-17 19:20:00,77.8,61.0,29.82,WSW,255,2.0,-999.0,57,-99.99,,,0.00,weatherlink.com 1.10,2013-06-17 23:20:00,
2013-06-17 19:35:00,77.3,61.0,29.82,West,266,1.0,-999.0,57,-99.99,,,0.00,weatherlink.com 1.10,2013-06-17 23:35:00,
2013-06-17 19:50:00,75.5,61.0,29.84,NW,304,5.0,-999.0,61,-99.99,,,0.00,weatherlink.com 1.10,2013-06-17 23:50:00,
2013-06-17 20:05:00,72.5,59.0,29.85,NNW,339,6.0,-999.0,63,-99.99,,,0.00,weatherlink.com 1.10,2013-06-18 00:05:00,
2013-06-17 20:35:00,68.8,59.0,29.84,NNE,25,1.0,-999.0,70,-99.99,,,0.00,weatherlink.com 1.10,2013-06-18 00:35:00,
2013-06-17 20:50:00,67.5,59.0,29.84,NE,40,0.0,-999.0,74,-99.99,,,0.00,weatherlink.com 1.10,2013-06-18 00:50:00,
2013-06-17 21:05:00,66.8,59.0,29.85,NE,39,2.0,-999.0,76,-99.99,,,0.00,weatherlink.com 1.10,2013-06-18 01:05:00,
2013-06-17 21:20:00,66.5,59.0,29.88,NW,312,11.0,-999.0,77,-99.99,,,0.00,weatherlink.com 1.10,2013-06-18 01:20:00,
2013-06-17 21:35:00,65.0,59.0,29.87,NNE,13,9.0,-999.0,82,-99.99,,,0.02,weatherlink.com 1.10,2013-06-18 01:35:00,
2013-06-17 21:50:00,63.6,60.0,29.87,North,9,6.0,-999.0,87,-99.99,,,0.02,weatherlink.com 1.10,2013-06-18 01:50:00,
2013-06-17 22:05:00,63.3,60.0,29.87,NNE,15,2.0,-999.0,88,-99.99,,,0.02,weatherlink.com 1.10,2013-06-18 02:05:00,
2013-06-17 22:20:00,63.0,60.0,29.87,NNE,15,0.0,-999.0,90,-99.99,,,0.02,weatherlink.com 1.10,2013-06-18 02:20:00,
2013-06-17 22:35:00,63.0,61.0,29.88,NNE,15,0.0,-999.0,92,-99.99,,,0.04,weatherlink.com 1.10,2013-06-18 02:35:00,
2013-06-17 22:50:00,62.8,61.0,29.88,NNE,15,0.0,-999.0,93,-99.99,,,0.04,weatherlink.com 1.10,2013-06-18 02:50:00,
2013-06-17 23:05:00,62.4,60.0,29.88,NNE,15,0.0,-999.0,93,-99.99,,,0.05,weatherlink.com 1.10,2013-06-18 03:05:00,
2013-06-17 23:20:00,61.7,60.0,29.88,NE,40,4.0,-999.0,93,-99.99,,,0.05,weatherlink.com 1.10,2013-06-18 03:20:00,
2013-06-17 23:35:00,61.3,60.0,29.88,NNE,22,4.0,-999.0,94,-99.99,,,0.05,weatherlink.com 1.10,2013-06-18 03:35:00,
2013-06-17 23:50:00,61.5,60.0,29.88,NE,39,6.0,-999.0,93,-99.99,,,0.05,weatherlink.com 1.10,2013-06-18 03:50:00,